Time,TemperatureF,DewpointF,PressureIn,WindDirection,WindDirectionDegrees,WindSpeedMPH,WindSpeedGustMPH,Humidity,HourlyPrecipIn,Conditions,Clouds,dailyrainin,SolarRadiationWatts/m^2,SoftwareType,DateUTC
2013-03-03 00:02:00,33.0,31.0,-100.00,NW,322,2.0,6.0,94,0.00,,,0.01,0.000000,,2013-03-03 05:02:00,
2013-03-03 00:12:00,33.0,31.0,-100.00,NW,322,2.0,6.0,94,0.00,,,0.01,0.000000,,2013-03-03 05:12:00,
2013-03-03 00:22:00,33.0,31.0,-100.00,NW,322,2.0,6.0,94,0.00,,,0.01,0.000000,,2013-03-03 05:22:00,
2013-03-03 00:52:00,32.0,30.0,-100.00,NW,314,4.0,7.0,94,0.00,,,0.01,0.000000,,2013-03-03 05:52:00,
2013-03-03 01:02:00,32.0,30.0,-100.00,NW,314,4.0,7.0,94,0.00,,,0.01,0.000000,,2013-03-03 06:02:00,
2013-03-03 01:11:00,32.0,30.0,-100.00,NW,314,4.0,7.0,94,0.00,,,0.01,0.000000,,2013-03-03 06:11:00,
2013-03-03 01:22:00,32.0,30.0,-100.00,NW,314,4.0,7.0,94,0.00,,,0.01,0.000000,,2013-03-03 06:22:00,
2013-03-03 01:52:00,32.0,31.0,-100.00,NW,312,2.0,6.0,95,0.00,,,0.01,0.000000,,2013-03-03 06:52:00,
2013-03-03 02:01:00,32.0,31.0,-100.00,NW,312,2.0,6.0,95,0.00,,,0.01,0.000000,,2013-03-03 07:01:00,
2013-03-03 02:11:00,32.0,31.0,-100.00,NW,312,2.0,6.0,95,0.00,,,0.01,0.000000,,2013-03-03 07:11:00,
2013-03-03 02:21:00,32.0,31.0,-100.00,NW,312,2.0,6.0,95,0.00,,,0.01,0.000000,,2013-03-03 07:21:00,
2013-03-03 02:52:00,32.0,31.0,-100.00,WNW,298,0.0,4.0,96,0.00,,,0.01,0.000000,,2013-03-03 07:52:00,
2013-03-03 03:01:00,32.0,31.0,-100.00,WNW,298,0.0,4.0,96,0.00,,,0.01,0.000000,,2013-03-03 08:01:00,
2013-03-03 03:11:00,32.0,31.0,-100.00,WNW,298,0.0,4.0,96,0.00,,,0.01,0.000000,,2013-03-03 08:11:00,
2013-03-03 03:21:00,32.0,31.0,-100.00,WNW,298,0.0,4.0,96,0.00,,,0.01,0.000000,,2013-03-03 08:21:00,
2013-03-03 03:54:00,32.0,31.0,-100.00,WNW,298,1.0,4.0,96,0.00,,,0.01,0.000000,,2013-03-03 08:54:00,
2013-03-03 04:02:00,32.0,31.0,-100.00,WNW,298,1.0,4.0,96,0.00,,,0.01,0.000000,,2013-03-03 09:02:00,
2013-03-03 04:12:00,32.0,31.0,-100.00,WNW,298,1.0,4.0,96,0.00,,,0.01,0.000000,,2013-03-03 09:12:00,
2013-03-03 04:21:00,32.0,31.0,-100.00,WNW,298,1.0,4.0,96,0.00,,,0.01,0.000000,,2013-03-03 09:21:00,
2013-03-03 04:52:00,32.0,31.0,-100.00,NW,315,1.0,6.0,96,0.00,,,0.01,0.000000,,2013-03-03 09:52:00,
2013-03-03 05:01:00,32.0,31.0,-100.00,NW,315,1.0,6.0,96,0.00,,,0.01,0.000000,,2013-03-03 10:01:00,
2013-03-03 05:12:00,32.0,31.0,-100.00,NW,315,1.0,6.0,96,0.00,,,0.01,0.000000,,2013-03-03 10:12:00,
2013-03-03 05:21:00,32.0,31.0,-100.00,NW,315,1.0,6.0,96,0.00,,,0.01,0.000000,,2013-03-03 10:21:00,
2013-03-03 05:52:00,32.0,31.0,-100.00,NW,310,0.0,3.0,96,0.00,,,0.01,0.000000,,2013-03-03 10:52:00,
2013-03-03 06:02:00,32.0,31.0,-100.00,NW,310,0.0,3.0,96,0.00,,,0.01,0.000000,,2013-03-03 11:02:00,
2013-03-03 06:11:00,32.0,31.0,-100.00,NW,310,0.0,3.0,96,0.00,,,0.01,0.000000,,2013-03-03 11:11:00,
2013-03-03 06:22:00,32.0,31.0,-100.00,NW,310,0.0,3.0,96,0.00,,,0.01,0.000000,,2013-03-03 11:22:00,
2013-03-03 06:53:00,32.0,31.0,-100.00,NW,305,0.0,3.0,96,0.00,,,0.01,1.000000,,2013-03-03 11:53:00,
2013-03-03 07:02:00,32.0,31.0,-100.00,NW,305,0.0,3.0,96,0.00,,,0.01,1.000000,,2013-03-03 12:02:00,
2013-03-03 07:11:00,32.0,31.0,-100.00,NW,305,0.0,3.0,96,0.00,,,0.01,1.000000,,2013-03-03 12:11:00,
2013-03-03 07:22:00,32.0,31.0,-100.00,NW,305,0.0,3.0,96,0.00,,,0.01,1.000000,,2013-03-03 12:22:00,
2013-03-03 07:53:00,33.0,32.0,-100.00,NW,313,1.0,-999.0,95,0.00,,,0.01,8.000000,,2013-03-03 12:53:00,
2013-03-03 08:02:00,33.0,32.0,-100.00,NW,313,1.0,-999.0,95,0.00,,,0.01,8.000000,,2013-03-03 13:02:00,
2013-03-03 08:11:00,33.0,32.0,-100.00,NW,313,1.0,-999.0,95,0.00,,,0.01,8.000000,,2013-03-03 13:11:00,
2013-03-03 08:22:00,33.0,32.0,-100.00,NW,313,1.0,-999.0,95,0.00,,,0.01,8.000000,,2013-03-03 13:22:00,
2013-03-03 08:52:00,34.0,32.0,-100.00,WNW,301,2.0,7.0,93,0.00,,,0.00,25.000000,,2013-03-03 13:52:00,
2013-03-03 09:02:00,34.0,32.0,-100.00,WNW,301,2.0,7.0,93,0.00,,,0.00,25.000000,,2013-03-03 14:02:00,
2013-03-03 09:11:00,34.0,32.0,-100.00,WNW,301,2.0,7.0,93,0.00,,,0.00,25.000000,,2013-03-03 14:11:00,
2013-03-03 09:22:00,34.0,32.0,-100.00,WNW,301,2.0,7.0,93,0.00,,,0.00,25.000000,,2013-03-03 14:22:00,
2013-03-03 09:52:00,37.0,34.0,-100.00,NW,324,2.0,7.0,87,0.07,,,0.07,128.000000,,2013-03-03 14:52:00,
2013-03-03 10:02:00,37.0,34.0,-100.00,NW,324,2.0,7.0,87,0.07,,,0.07,128.000000,,2013-03-03 15:02:00,
2013-03-03 10:11:00,37.0,34.0,-100.00,NW,324,2.0,7.0,87,0.07,,,0.07,128.000000,,2013-03-03 15:11:00,
2013-03-03 10:22:00,37.0,34.0,-100.00,NW,324,2.0,7.0,87,0.07,,,0.07,128.000000,,2013-03-03 15:22:00,
2013-03-03 10:52:00,39.0,34.0,-100.00,WNW,284,4.0,24.0,82,0.07,,,0.14,306.000000,,2013-03-03 15:52:00,
2013-03-03 11:02:00,39.0,34.0,-100.00,WNW,284,4.0,24.0,82,0.07,,,0.14,306.000000,,2013-03-03 16:02:00,
2013-03-03 11:12:00,39.0,34.0,-100.00,WNW,284,4.0,24.0,82,0.07,,,0.14,306.000000,,2013-03-03 16:12:00,
2013-03-03 11:22:00,39.0,34.0,-100.00,WNW,284,4.0,24.0,82,0.07,,,0.14,306.000000,,2013-03-03 16:22:00,
2013-03-03 11:52:00,42.0,35.0,-100.00,WNW,298,3.0,7.0,75,0.00,,,0.14,396.000000,,2013-03-03 16:52:00,
2013-03-03 12:01:00,42.0,35.0,-100.00,WNW,298,3.0,7.0,75,0.00,,,0.14,396.000000,,2013-03-03 17:01:00,
2013-03-03 12:12:00,42.0,35.0,-100.00,WNW,298,3.0,7.0,75,0.00,,,0.14,396.000000,,2013-03-03 17:12:00,
2013-03-03 12:22:00,42.0,35.0,-100.00,WNW,298,3.0,7.0,75,0.00,,,0.14,396.000000,,2013-03-03 17:22:00,
2013-03-03 12:52:00,42.0,35.0,-100.00,West,269,3.0,7.0,76,0.00,,,0.14,313.000000,,2013-03-03 17:52:00,
2013-03-03 13:02:00,42.0,35.0,-100.00,West,269,3.0,7.0,76,0.00,,,0.14,313.000000,,2013-03-03 18:02:00,
2013-03-03 13:11:00,42.0,35.0,-100.00,West,269,3.0,7.0,76,0.00,,,0.14,313.000000,,2013-03-03 18:11:00,
2013-03-03 13:22:00,42.0,35.0,-100.00,West,269,3.0,7.0,76,0.00,,,0.14,313.000000,,2013-03-03 18:22:00,
2013-03-03 13:53:00,42.0,34.0,-100.00,West,278,4.0,8.0,73,0.00,,,0.14,272.000000,,2013-03-03 18:53:00,
2013-03-03 14:02:00,42.0,34.0,-100.00,West,278,4.0,8.0,73,0.00,,,0.14,272.000000,,2013-03-03 19:02:00,
2013-03-03 14:11:00,42.0,34.0,-100.00,West,278,4.0,8.0,73,0.00,,,0.14,272.000000,,2013-03-03 19:11:00,
2013-03-03 14:22:00,42.0,34.0,-100.00,West,278,4.0,8.0,73,0.00,,,0.14,272.000000,,2013-03-03 19:22:00,
2013-03-03 14:52:00,42.0,33.0,-100.00,WNW,291,4.0,10.0,69,0.00,,,0.14,312.000000,,2013-03-03 19:52:00,
2013-03-03 15:02:00,42.0,33.0,-100.00,WNW,291,4.0,10.0,69,0.00,,,0.14,312.000000,,2013-03-03 20:02:00,
2013-03-03 15:11:00,42.0,33.0,-100.00,WNW,291,4.0,10.0,69,0.00,,,0.14,312.000000,,2013-03-03 20:11:00,
2013-03-03 15:21:00,42.0,33.0,-100.00,WNW,291,4.0,10.0,69,0.00,,,0.14,312.000000,,2013-03-03 20:21:00,
2013-03-03 15:53:00,41.0,33.0,-100.00,West,276,3.0,7.0,72,0.00,,,0.14,94.000000,,2013-03-03 20:53:00,
2013-03-03 16:02:00,41.0,33.0,-100.00,West,276,3.0,7.0,72,0.00,,,0.14,94.000000,,2013-03-03 21:02:00,
2013-03-03 16:12:00,41.0,33.0,-100.00,West,276,3.0,7.0,72,0.00,,,0.14,94.000000,,2013-03-03 21:12:00,
2013-03-03 16:22:00,41.0,33.0,-100.00,West,276,3.0,7.0,72,0.00,,,0.14,94.000000,,2013-03-03 21:22:00,
2013-03-03 16:52:00,41.0,33.0,-100.00,West,280,2.0,8.0,73,0.00,,,0.14,76.000000,,2013-03-03 21:52:00,
2013-03-03 17:02:00,41.0,33.0,-100.00,West,280,2.0,8.0,73,0.00,,,0.14,76.000000,,2013-03-03 22:02:00,
2013-03-03 17:11:00,41.0,33.0,-100.00,West,280,2.0,8.0,73,0.00,,,0.14,76.000000,,2013-03-03 22:11:00,
2013-03-03 17:22:00,41.0,33.0,-100.00,West,280,2.0,8.0,73,0.00,,,0.14,76.000000,,2013-03-03 22:22:00,
2013-03-03 17:53:00,40.0,32.0,-100.00,NW,307,3.0,7.0,73,0.00,,,0.14,20.000000,,2013-03-03 22:53:00,
2013-03-03 18:02:00,40.0,32.0,-100.00,NW,307,3.0,7.0,73,0.00,,,0.14,20.000000,,2013-03-03 23:02:00,
2013-03-03 18:11:00,40.0,32.0,-100.00,NW,307,3.0,7.0,73,0.00,,,0.14,20.000000,,2013-03-03 23:11:00,
2013-03-03 18:22:00,40.0,32.0,-100.00,NW,307,3.0,7.0,73,0.00,,,0.14,20.000000,,2013-03-03 23:22:00,
2013-03-03 18:52:00,38.0,30.0,-100.00,WNW,303,1.0,6.0,72,0.00,,,0.14,1.000000,,2013-03-03 23:52:00,
2013-03-03 19:02:00,38.0,30.0,-100.00,WNW,303,1.0,6.0,72,0.00,,,0.14,1.000000,,2013-03-04 00:02:00,
2013-03-03 19:11:00,38.0,30.0,-100.00,WNW,303,1.0,6.0,72,0.00,,,0.14,1.000000,,2013-03-04 00:11:00,
2013-03-03 19:22:00,38.0,30.0,-100.00,WNW,303,1.0,6.0,72,0.00,,,0.14,1.000000,,2013-03-04 00:22:00,
2013-03-03 19:52:00,37.0,30.0,-100.00,WNW,303,1.0,7.0,75,0.00,,,0.14,0.000000,,2013-03-04 00:52:00,
2013-03-03 20:02:00,37.0,30.0,-100.00,WNW,303,1.0,7.0,75,0.00,,,0.14,0.000000,,2013-03-04 01:02:00,
2013-03-03 20:12:00,37.0,30.0,-100.00,WNW,303,1.0,7.0,75,0.00,,,0.14,0.000000,,2013-03-04 01:12:00,
2013-03-03 20:22:00,37.0,30.0,-100.00,WNW,303,1.0,7.0,75,0.00,,,0.14,0.000000,,2013-03-04 01:22:00,
2013-03-03 20:52:00,36.0,27.0,-100.00,NW,310,3.0,7.0,70,0.00,,,0.14,0.000000,,2013-03-04 01:52:00,
2013-03-03 21:01:00,36.0,27.0,-100.00,NW,310,3.0,7.0,70,0.00,,,0.14,0.000000,,2013-03-04 02:01:00,
2013-03-03 21:11:00,36.0,27.0,-100.00,NW,310,3.0,7.0,70,0.00,,,0.14,0.000000,,2013-03-04 02:11:00,
2013-03-03 21:22:00,36.0,27.0,-100.00,NW,310,3.0,7.0,70,0.00,,,0.14,0.000000,,2013-03-04 02:22:00,
2013-03-03 21:53:00,35.0,27.0,-100.00,NW,305,3.0,9.0,73,0.00,,,0.14,0.000000,,2013-03-04 02:53:00,
2013-03-03 22:02:00,35.0,27.0,-100.00,NW,305,3.0,9.0,73,0.00,,,0.14,0.000000,,2013-03-04 03:02:00,
2013-03-03 22:11:00,35.0,27.0,-100.00,NW,305,3.0,9.0,73,0.00,,,0.14,0.000000,,2013-03-04 03:11:00,
2013-03-03 22:22:00,35.0,27.0,-100.00,NW,305,3.0,9.0,73,0.00,,,0.14,0.000000,,2013-03-04 03:22:00,
2013-03-03 22:53:00,35.0,27.0,-100.00,WNW,295,4.0,8.0,71,0.00,,,0.14,0.000000,,2013-03-04 03:53:00,
2013-03-03 23:02:00,35.0,27.0,-100.00,WNW,295,4.0,8.0,71,0.00,,,0.14,0.000000,,2013-03-04 04:02:00,
2013-03-03 23:11:00,35.0,27.0,-100.00,WNW,295,4.0,8.0,71,0.00,,,0.14,0.000000,,2013-03-04 04:11:00,
2013-03-03 23:22:00,35.0,27.0,-100.00,WNW,295,4.0,8.0,71,0.00,,,0.14,0.000000,,2013-03-04 04:22:00,
2013-03-03 23:52:00,34.0,25.0,-100.00,NW,312,4.0,11.0,69,0.00,,,0.14,0.000000,,2013-03-04 04:52:00,